sensor_id;sensor_type;location;lat;lon;timestamp;temperature;humidity
3262;DHT22;1643;47.746;9.000;2022-09-17T00:00:50;13.60;99.90
3262;DHT22;1643;47.746;9.000;2022-09-17T00:03:17;13.60;99.90
3262;DHT22;1643;47.746;9.000;2022-09-17T00:05:42;13.60;99.90
3262;DHT22;1643;47.746;9.000;2022-09-17T00:08:11;13.50;99.90
3262;DHT22;1643;47.746;9.000;2022-09-17T00:10:41;13.50;99.90
3262;DHT22;1643;47.746;9.000;2022-09-17T00:13:07;13.40;99.90
3262;DHT22;1643;47.746;9.000;2022-09-17T00:15:42;13.40;99.90
3262;DHT22;1643;47.746;9.000;2022-09-17T00:18:09;13.50;99.90
3262;DHT22;1643;47.746;9.000;2022-09-17T00:20:43;13.40;99.90
3262;DHT22;1643;47.746;9.000;2022-09-17T00:23:10;13.40;99.90
3262;DHT22;1643;47.746;9.000;2022-09-17T00:25:38;13.50;99.90
3262;DHT22;1643;47.746;9.000;2022-09-17T00:28:04;13.40;99.90
3262;DHT22;1643;47.746;9.000;2022-09-17T00:30:29;13.40;99.90
3262;DHT22;1643;47.746;9.000;2022-09-17T00:32:55;13.40;99.90
3262;DHT22;1643;47.746;9.000;2022-09-17T00:35:23;13.40;99.90
3262;DHT22;1643;47.746;9.000;2022-09-17T00:37:48;13.40;99.90
3262;DHT22;1643;47.746;9.000;2022-09-17T00:40:14;13.40;99.90
3262;DHT22;1643;47.746;9.000;2022-09-17T00:42:39;13.40;99.90
3262;DHT22;1643;47.746;9.000;2022-09-17T00:45:06;13.40;99.90
3262;DHT22;1643;47.746;9.000;2022-09-17T00:47:57;13.40;99.90
3262;DHT22;1643;47.746;9.000;2022-09-17T00:50:35;13.40;99.90
3262;DHT22;1643;47.746;9.000;2022-09-17T00:53:17;13.40;99.90
3262;DHT22;1643;47.746;9.000;2022-09-17T00:56:08;13.30;99.90
3262;DHT22;1643;47.746;9.000;2022-09-17T00:58:35;13.40;99.90
3262;DHT22;1643;47.746;9.000;2022-09-17T01:01:01;13.30;99.90
3262;DHT22;1643;47.746;9.000;2022-09-17T01:03:27;13.30;99.90
3262;DHT22;1643;47.746;9.000;2022-09-17T01:11:34;13.30;99.90
3262;DHT22;1643;47.746;9.000;2022-09-17T01:22:13;13.30;99.90
3262;DHT22;1643;47.746;9.000;2022-09-17T01:28:00;13.20;99.90
3262;DHT22;1643;47.746;9.000;2022-09-17T01:30:57;13.10;99.90
3262;DHT22;1643;47.746;9.000;2022-09-17T01:39:04;13.20;99.90
3262;DHT22;1643;47.746;9.000;2022-09-17T01:41:53;13.10;99.90
3262;DHT22;1643;47.746;9.000;2022-09-17T01:44:27;13.20;99.90
3262;DHT22;1643;47.746;9.000;2022-09-17T01:47:04;13.10;99.90
3262;DHT22;1643;47.746;9.000;2022-09-17T01:49:34;13.00;99.90
3262;DHT22;1643;47.746;9.000;2022-09-17T01:52:02;13.00;99.90
3262;DHT22;1643;47.746;9.000;2022-09-17T01:54:32;13.10;99.90
3262;DHT22;1643;47.746;9.000;2022-09-17T01:57:08;13.10;99.90
3262;DHT22;1643;47.746;9.000;2022-09-17T02:05:19;13.10;99.90
3262;DHT22;1643;47.746;9.000;2022-09-17T02:08:08;13.10;99.90
3262;DHT22;1643;47.746;9.000;2022-09-17T02:10:40;13.10;99.90
3262;DHT22;1643;47.746;9.000;2022-09-17T02:13:24;13.10;99.90
3262;DHT22;1643;47.746;9.000;2022-09-17T02:16:01;13.10;99.90
3262;DHT22;1643;47.746;9.000;2022-09-17T02:18:36;13.10;99.90
3262;DHT22;1643;47.746;9.000;2022-09-17T02:21:19;13.10;99.90
3262;DHT22;1643;47.746;9.000;2022-09-17T02:24:11;13.10;99.90
3262;DHT22;1643;47.746;9.000;2022-09-17T02:26:44;13.10;99.90
3262;DHT22;1643;47.746;9.000;2022-09-17T02:29:48;13.10;99.90
3262;DHT22;1643;47.746;9.000;2022-09-17T02:32:07;13.00;99.90
3262;DHT22;1643;47.746;9.000;2022-09-17T02:34:33;13.00;99.90
3262;DHT22;1643;47.746;9.000;2022-09-17T02:37:00;12.90;99.90
3262;DHT22;1643;47.746;9.000;2022-09-17T02:39:26;12.90;99.90
3262;DHT22;1643;47.746;9.000;2022-09-17T03:00:30;12.60;99.90
3262;DHT22;1643;47.746;9.000;2022-09-17T03:03:00;12.60;99.90
3262;DHT22;1643;47.746;9.000;2022-09-17T03:05:29;12.50;99.90
3262;DHT22;1643;47.746;9.000;2022-09-17T03:07:55;12.60;99.90
3262;DHT22;1643;47.746;9.000;2022-09-17T03:10:22;12.60;99.90
3262;DHT22;1643;47.746;9.000;2022-09-17T03:12:48;12.50;99.90
3262;DHT22;1643;47.746;9.000;2022-09-17T03:15:14;12.40;99.90
3262;DHT22;1643;47.746;9.000;2022-09-17T03:17:39;12.40;99.90
3262;DHT22;1643;47.746;9.000;2022-09-17T03:20:05;12.40;99.90
3262;DHT22;1643;47.746;9.000;2022-09-17T03:22:31;12.50;99.90
3262;DHT22;1643;47.746;9.000;2022-09-17T03:24:57;12.60;99.90
3262;DHT22;1643;47.746;9.000;2022-09-17T03:27:22;12.70;99.90
3262;DHT22;1643;47.746;9.000;2022-09-17T03:29:48;12.70;99.90
3262;DHT22;1643;47.746;9.000;2022-09-17T03:32:14;12.70;99.90
3262;DHT22;1643;47.746;9.000;2022-09-17T03:34:39;12.70;99.90
3262;DHT22;1643;47.746;9.000;2022-09-17T03:37:05;12.70;99.90
3262;DHT22;1643;47.746;9.000;2022-09-17T03:39:30;12.70;99.90
3262;DHT22;1643;47.746;9.000;2022-09-17T03:41:56;12.80;99.90
3262;DHT22;1643;47.746;9.000;2022-09-17T03:44:22;12.70;99.90
3262;DHT22;1643;47.746;9.000;2022-09-17T03:46:48;12.60;99.90
3262;DHT22;1643;47.746;9.000;2022-09-17T03:49:14;12.70;99.90
3262;DHT22;1643;47.746;9.000;2022-09-17T03:51:40;12.70;99.90
3262;DHT22;1643;47.746;9.000;2022-09-17T03:54:06;12.70;99.90
3262;DHT22;1643;47.746;9.000;2022-09-17T03:56:31;12.60;99.90
3262;DHT22;1643;47.746;9.000;2022-09-17T03:59:01;12.50;99.90
3262;DHT22;1643;47.746;9.000;2022-09-17T04:01:27;12.50;99.90
3262;DHT22;1643;47.746;9.000;2022-09-17T04:03:53;12.60;99.90
3262;DHT22;1643;47.746;9.000;2022-09-17T04:06:19;12.60;99.90
3262;DHT22;1643;47.746;9.000;2022-09-17T04:08:45;12.50;99.90
3262;DHT22;1643;47.746;9.000;2022-09-17T04:11:11;12.50;99.90
3262;DHT22;1643;47.746;9.000;2022-09-17T04:13:36;12.60;99.90
3262;DHT22;1643;47.746;9.000;2022-09-17T04:16:02;12.50;99.90
3262;DHT22;1643;47.746;9.000;2022-09-17T04:18:28;12.60;99.90
3262;DHT22;1643;47.746;9.000;2022-09-17T04:20:54;12.60;99.90
3262;DHT22;1643;47.746;9.000;2022-09-17T04:23:22;12.50;99.90
3262;DHT22;1643;47.746;9.000;2022-09-17T04:25:48;12.50;99.90
3262;DHT22;1643;47.746;9.000;2022-09-17T04:28:13;12.50;99.90
3262;DHT22;1643;47.746;9.000;2022-09-17T04:30:39;12.60;99.90
3262;DHT22;1643;47.746;9.000;2022-09-17T04:33:07;12.60;99.90
3262;DHT22;1643;47.746;9.000;2022-09-17T04:35:33;12.50;99.90
3262;DHT22;1643;47.746;9.000;2022-09-17T04:37:59;12.60;99.90
3262;DHT22;1643;47.746;9.000;2022-09-17T04:40:26;12.60;99.90
3262;DHT22;1643;47.746;9.000;2022-09-17T04:42:55;12.50;99.90
3262;DHT22;1643;47.746;9.000;2022-09-17T04:45:23;12.50;99.90
3262;DHT22;1643;47.746;9.000;2022-09-17T04:47:49;12.50;99.90
3262;DHT22;1643;47.746;9.000;2022-09-17T04:50:16;12.50;99.90
3262;DHT22;1643;47.746;9.000;2022-09-17T04:52:43;12.50;99.90
3262;DHT22;1643;47.746;9.000;2022-09-17T04:55:09;12.40;99.90
3262;DHT22;1643;47.746;9.000;2022-09-17T04:57:35;12.50;99.90
3262;DHT22;1643;47.746;9.000;2022-09-17T05:00:01;12.40;99.90
3262;DHT22;1643;47.746;9.000;2022-09-17T05:02:27;12.40;99.90
3262;DHT22;1643;47.746;9.000;2022-09-17T05:04:52;12.40;99.90
3262;DHT22;1643;47.746;9.000;2022-09-17T05:07:18;12.40;99.90
3262;DHT22;1643;47.746;9.000;2022-09-17T05:09:44;12.40;99.90
3262;DHT22;1643;47.746;9.000;2022-09-17T05:12:09;12.40;99.90
3262;DHT22;1643;47.746;9.000;2022-09-17T05:14:35;12.40;99.90
3262;DHT22;1643;47.746;9.000;2022-09-17T05:17:00;12.30;99.90
3262;DHT22;1643;47.746;9.000;2022-09-17T05:19:26;12.30;99.90
3262;DHT22;1643;47.746;9.000;2022-09-17T05:21:51;12.30;99.90
3262;DHT22;1643;47.746;9.000;2022-09-17T05:24:17;12.30;99.90
3262;DHT22;1643;47.746;9.000;2022-09-17T05:26:42;12.30;99.90
3262;DHT22;1643;47.746;9.000;2022-09-17T05:29:08;12.20;99.90
3262;DHT22;1643;47.746;9.000;2022-09-17T05:31:34;12.20;99.90
3262;DHT22;1643;47.746;9.000;2022-09-17T05:33:59;12.20;99.90
3262;DHT22;1643;47.746;9.000;2022-09-17T05:36:25;12.20;99.90
3262;DHT22;1643;47.746;9.000;2022-09-17T05:38:50;12.20;99.90
3262;DHT22;1643;47.746;9.000;2022-09-17T05:41:16;12.30;99.90
3262;DHT22;1643;47.746;9.000;2022-09-17T05:43:42;12.20;99.90
3262;DHT22;1643;47.746;9.000;2022-09-17T05:46:08;12.30;99.90
3262;DHT22;1643;47.746;9.000;2022-09-17T05:48:34;12.30;99.90
3262;DHT22;1643;47.746;9.000;2022-09-17T05:50:59;12.20;99.90
3262;DHT22;1643;47.746;9.000;2022-09-17T05:53:25;12.20;99.90
3262;DHT22;1643;47.746;9.000;2022-09-17T05:55:55;12.20;99.90
3262;DHT22;1643;47.746;9.000;2022-09-17T05:58:21;12.30;99.90
3262;DHT22;1643;47.746;9.000;2022-09-17T06:00:46;12.20;99.90
3262;DHT22;1643;47.746;9.000;2022-09-17T06:03:14;12.30;99.90
3262;DHT22;1643;47.746;9.000;2022-09-17T06:05:41;12.30;99.90
3262;DHT22;1643;47.746;9.000;2022-09-17T06:08:07;12.30;99.90
3262;DHT22;1643;47.746;9.000;2022-09-17T06:10:36;12.30;99.90
3262;DHT22;1643;47.746;9.000;2022-09-17T06:13:03;12.30;99.90
3262;DHT22;1643;47.746;9.000;2022-09-17T06:15:29;12.40;99.90
3262;DHT22;1643;47.746;9.000;2022-09-17T06:17:55;12.40;99.90
3262;DHT22;1643;47.746;9.000;2022-09-17T06:20:21;12.40;99.90
3262;DHT22;1643;47.746;9.000;2022-09-17T06:22:47;12.40;99.90
3262;DHT22;1643;47.746;9.000;2022-09-17T06:25:12;12.40;99.90
3262;DHT22;1643;47.746;9.000;2022-09-17T06:27:38;12.40;99.90
3262;DHT22;1643;47.746;9.000;2022-09-17T06:30:04;12.30;99.90
3262;DHT22;1643;47.746;9.000;2022-09-17T06:32:31;12.20;99.90
3262;DHT22;1643;47.746;9.000;2022-09-17T06:34:57;12.20;99.90
3262;DHT22;1643;47.746;9.000;2022-09-17T06:37:30;12.10;99.90
3262;DHT22;1643;47.746;9.000;2022-09-17T06:39:56;12.20;99.90
3262;DHT22;1643;47.746;9.000;2022-09-17T06:42:22;12.20;99.90
3262;DHT22;1643;47.746;9.000;2022-09-17T06:44:48;12.30;99.90
3262;DHT22;1643;47.746;9.000;2022-09-17T06:47:13;12.20;99.90
3262;DHT22;1643;47.746;9.000;2022-09-17T06:49:39;12.20;99.90
3262;DHT22;1643;47.746;9.000;2022-09-17T06:52:04;12.10;99.90
3262;DHT22;1643;47.746;9.000;2022-09-17T06:54:30;12.00;99.90
3262;DHT22;1643;47.746;9.000;2022-09-17T06:56:56;12.20;99.90
3262;DHT22;1643;47.746;9.000;2022-09-17T06:59:22;12.20;99.90
3262;DHT22;1643;47.746;9.000;2022-09-17T07:01:48;12.20;99.90
3262;DHT22;1643;47.746;9.000;2022-09-17T07:04:14;12.40;99.90
3262;DHT22;1643;47.746;9.000;2022-09-17T07:06:42;12.50;99.90
3262;DHT22;1643;47.746;9.000;2022-09-17T07:09:08;12.50;99.90
3262;DHT22;1643;47.746;9.000;2022-09-17T07:11:34;12.50;99.90
3262;DHT22;1643;47.746;9.000;2022-09-17T07:13:59;12.50;99.90
3262;DHT22;1643;47.746;9.000;2022-09-17T07:16:25;12.60;99.90
3262;DHT22;1643;47.746;9.000;2022-09-17T07:18:51;12.70;99.90
3262;DHT22;1643;47.746;9.000;2022-09-17T07:21:17;12.80;99.90
3262;DHT22;1643;47.746;9.000;2022-09-17T07:23:43;12.70;99.90
3262;DHT22;1643;47.746;9.000;2022-09-17T07:26:14;12.80;99.90
3262;DHT22;1643;47.746;9.000;2022-09-17T07:28:40;12.80;99.90
3262;DHT22;1643;47.746;9.000;2022-09-17T07:31:07;12.70;99.90
3262;DHT22;1643;47.746;9.000;2022-09-17T07:33:34;12.70;99.90
3262;DHT22;1643;47.746;9.000;2022-09-17T07:36:04;12.80;99.90
3262;DHT22;1643;47.746;9.000;2022-09-17T07:38:30;12.70;99.90
3262;DHT22;1643;47.746;9.000;2022-09-17T07:40:58;12.80;99.90
3262;DHT22;1643;47.746;9.000;2022-09-17T07:43:25;12.70;99.90
3262;DHT22;1643;47.746;9.000;2022-09-17T07:45:51;12.80;99.90
3262;DHT22;1643;47.746;9.000;2022-09-17T07:48:18;12.90;99.90
3262;DHT22;1643;47.746;9.000;2022-09-17T07:50:43;13.10;99.90
3262;DHT22;1643;47.746;9.000;2022-09-17T07:53:09;13.10;99.90
3262;DHT22;1643;47.746;9.000;2022-09-17T07:55:35;13.00;99.90
3262;DHT22;1643;47.746;9.000;2022-09-17T07:58:00;13.00;99.90
3262;DHT22;1643;47.746;9.000;2022-09-17T08:00:26;13.00;99.90
3262;DHT22;1643;47.746;9.000;2022-09-17T08:02:55;13.00;99.90
3262;DHT22;1643;47.746;9.000;2022-09-17T08:05:22;13.00;99.90
3262;DHT22;1643;47.746;9.000;2022-09-17T08:07:49;13.00;99.90
3262;DHT22;1643;47.746;9.000;2022-09-17T08:10:15;12.90;99.90
3262;DHT22;1643;47.746;9.000;2022-09-17T08:12:41;12.90;99.90
3262;DHT22;1643;47.746;9.000;2022-09-17T08:15:07;12.90;99.90
3262;DHT22;1643;47.746;9.000;2022-09-17T08:17:32;12.80;99.90
3262;DHT22;1643;47.746;9.000;2022-09-17T08:19:58;12.90;99.90
3262;DHT22;1643;47.746;9.000;2022-09-17T08:22:23;13.00;99.90
3262;DHT22;1643;47.746;9.000;2022-09-17T08:24:49;13.10;99.90
3262;DHT22;1643;47.746;9.000;2022-09-17T08:27:15;13.10;99.90
3262;DHT22;1643;47.746;9.000;2022-09-17T08:29:40;13.00;99.90
3262;DHT22;1643;47.746;9.000;2022-09-17T08:32:06;12.90;99.90
3262;DHT22;1643;47.746;9.000;2022-09-17T08:34:31;13.10;99.90
3262;DHT22;1643;47.746;9.000;2022-09-17T08:36:57;13.40;99.90
3262;DHT22;1643;47.746;9.000;2022-09-17T08:39:22;13.50;99.90
3262;DHT22;1643;47.746;9.000;2022-09-17T08:42:04;13.70;99.90
3262;DHT22;1643;47.746;9.000;2022-09-17T08:44:40;13.70;99.90
3262;DHT22;1643;47.746;9.000;2022-09-17T08:47:24;13.80;99.90
3262;DHT22;1643;47.746;9.000;2022-09-17T08:50:11;13.90;99.90
3262;DHT22;1643;47.746;9.000;2022-09-17T09:01:10;13.10;99.90
3262;DHT22;1643;47.746;9.000;2022-09-17T09:07:11;13.00;99.90
3262;DHT22;1643;47.746;9.000;2022-09-17T09:10:05;13.00;99.90
3262;DHT22;1643;47.746;9.000;2022-09-17T09:12:32;13.00;99.90
3262;DHT22;1643;47.746;9.000;2022-09-17T09:15:01;13.40;99.90
3262;DHT22;1643;47.746;9.000;2022-09-17T09:17:47;13.60;99.90
3262;DHT22;1643;47.746;9.000;2022-09-17T09:20:27;13.50;99.90
3262;DHT22;1643;47.746;9.000;2022-09-17T09:23:09;13.40;99.90
3262;DHT22;1643;47.746;9.000;2022-09-17T09:26:20;13.50;99.90
3262;DHT22;1643;47.746;9.000;2022-09-17T09:34:21;13.60;99.90
3262;DHT22;1643;47.746;9.000;2022-09-17T09:36:48;13.80;99.90
3262;DHT22;1643;47.746;9.000;2022-09-17T09:39:24;14.00;99.90
3262;DHT22;1643;47.746;9.000;2022-09-17T09:42:09;14.30;99.90
3262;DHT22;1643;47.746;9.000;2022-09-17T09:44:38;14.20;99.90
3262;DHT22;1643;47.746;9.000;2022-09-17T09:50:14;14.50;99.90
3262;DHT22;1643;47.746;9.000;2022-09-17T09:58:38;14.50;99.90
3262;DHT22;1643;47.746;9.000;2022-09-17T10:01:15;14.50;99.90
3262;DHT22;1643;47.746;9.000;2022-09-17T10:03:43;14.30;99.90
3262;DHT22;1643;47.746;9.000;2022-09-17T10:06:11;14.10;99.90
3262;DHT22;1643;47.746;9.000;2022-09-17T10:11:28;13.60;99.90
3262;DHT22;1643;47.746;9.000;2022-09-17T10:16:39;13.80;99.90
3262;DHT22;1643;47.746;9.000;2022-09-17T10:21:41;14.10;99.90
3262;DHT22;1643;47.746;9.000;2022-09-17T10:26:45;14.00;99.90
3262;DHT22;1643;47.746;9.000;2022-09-17T10:29:13;14.10;99.90
3262;DHT22;1643;47.746;9.000;2022-09-17T10:31:54;14.30;99.90
3262;DHT22;1643;47.746;9.000;2022-09-17T10:34:29;14.50;99.90
3262;DHT22;1643;47.746;9.000;2022-09-17T10:36:55;14.60;99.90
3262;DHT22;1643;47.746;9.000;2022-09-17T10:39:34;14.60;99.90
3262;DHT22;1643;47.746;9.000;2022-09-17T10:44:32;14.70;99.90
3262;DHT22;1643;47.746;9.000;2022-09-17T10:47:13;14.70;99.90
3262;DHT22;1643;47.746;9.000;2022-09-17T10:49:47;14.70;99.90
3262;DHT22;1643;47.746;9.000;2022-09-17T10:52:24;14.60;99.90
3262;DHT22;1643;47.746;9.000;2022-09-17T11:00:43;14.40;99.90
3262;DHT22;1643;47.746;9.000;2022-09-17T11:14:50;13.50;99.90
3262;DHT22;1643;47.746;9.000;2022-09-17T11:25:50;13.80;99.90
3262;DHT22;1643;47.746;9.000;2022-09-17T11:39:22;15.00;99.90
3262;DHT22;1643;47.746;9.000;2022-09-17T11:41:51;15.30;99.90
3262;DHT22;1643;47.746;9.000;2022-09-17T11:44:47;15.50;99.90
3262;DHT22;1643;47.746;9.000;2022-09-17T11:47:19;15.30;99.90
3262;DHT22;1643;47.746;9.000;2022-09-17T11:53:18;15.00;99.90
3262;DHT22;1643;47.746;9.000;2022-09-17T11:56:16;14.60;99.90
3262;DHT22;1643;47.746;9.000;2022-09-17T11:58:54;14.40;99.90
3262;DHT22;1643;47.746;9.000;2022-09-17T12:01:51;14.20;99.90
3262;DHT22;1643;47.746;9.000;2022-09-17T12:04:30;14.00;99.90
3262;DHT22;1643;47.746;9.000;2022-09-17T12:07:07;14.00;99.90
3262;DHT22;1643;47.746;9.000;2022-09-17T12:09:35;14.10;99.90
3262;DHT22;1643;47.746;9.000;2022-09-17T12:12:10;14.10;99.90
3262;DHT22;1643;47.746;9.000;2022-09-17T12:17:33;14.40;99.90
3262;DHT22;1643;47.746;9.000;2022-09-17T12:20:06;14.80;99.90
3262;DHT22;1643;47.746;9.000;2022-09-17T12:22:38;15.20;99.90
3262;DHT22;1643;47.746;9.000;2022-09-17T12:25:04;15.40;99.90
3262;DHT22;1643;47.746;9.000;2022-09-17T12:30:35;16.30;99.90
3262;DHT22;1643;47.746;9.000;2022-09-17T12:36:06;16.40;99.90
3262;DHT22;1643;47.746;9.000;2022-09-17T12:47:43;15.60;99.90
3262;DHT22;1643;47.746;9.000;2022-09-17T12:55:34;14.70;99.90
3262;DHT22;1643;47.746;9.000;2022-09-17T12:58:18;14.60;99.90
3262;DHT22;1643;47.746;9.000;2022-09-17T13:00:58;14.40;99.90
3262;DHT22;1643;47.746;9.000;2022-09-17T13:03:39;14.20;99.90
3262;DHT22;1643;47.746;9.000;2022-09-17T13:11:49;14.00;99.90
3262;DHT22;1643;47.746;9.000;2022-09-17T13:19:52;14.30;99.90
3262;DHT22;1643;47.746;9.000;2022-09-17T13:22:23;14.20;99.90
3262;DHT22;1643;47.746;9.000;2022-09-17T13:25:20;14.10;99.90
3262;DHT22;1643;47.746;9.000;2022-09-17T13:27:47;14.00;99.90
3262;DHT22;1643;47.746;9.000;2022-09-17T13:30:15;14.00;99.90
3262;DHT22;1643;47.746;9.000;2022-09-17T13:32:43;13.90;99.90
3262;DHT22;1643;47.746;9.000;2022-09-17T13:42:49;14.10;99.90
3262;DHT22;1643;47.746;9.000;2022-09-17T13:45:17;14.20;99.90
3262;DHT22;1643;47.746;9.000;2022-09-17T13:50:36;14.50;99.90
3262;DHT22;1643;47.746;9.000;2022-09-17T13:58:05;15.00;99.90
3262;DHT22;1643;47.746;9.000;2022-09-17T14:01:02;15.30;99.90
3262;DHT22;1643;47.746;9.000;2022-09-17T14:19:23;14.80;99.90
3262;DHT22;1643;47.746;9.000;2022-09-17T14:22:19;14.80;99.90
3262;DHT22;1643;47.746;9.000;2022-09-17T14:24:50;14.80;99.90
3262;DHT22;1643;47.746;9.000;2022-09-17T14:30:21;14.90;99.90
3262;DHT22;1643;47.746;9.000;2022-09-17T14:33:10;14.80;99.90
3262;DHT22;1643;47.746;9.000;2022-09-17T14:35:48;14.90;99.90
3262;DHT22;1643;47.746;9.000;2022-09-17T14:38:31;14.90;99.90
3262;DHT22;1643;47.746;9.000;2022-09-17T14:41:05;14.90;99.90
3262;DHT22;1643;47.746;9.000;2022-09-17T14:46:24;14.90;99.90
3262;DHT22;1643;47.746;9.000;2022-09-17T14:48:51;14.90;99.90
3262;DHT22;1643;47.746;9.000;2022-09-17T14:53:48;14.80;99.90
3262;DHT22;1643;47.746;9.000;2022-09-17T14:56:17;15.00;99.90
3262;DHT22;1643;47.746;9.000;2022-09-17T14:58:51;15.30;99.90
3262;DHT22;1643;47.746;9.000;2022-09-17T15:01:26;15.60;99.90
3262;DHT22;1643;47.746;9.000;2022-09-17T15:06:42;15.50;99.90
3262;DHT22;1643;47.746;9.000;2022-09-17T15:09:22;15.60;99.90
3262;DHT22;1643;47.746;9.000;2022-09-17T15:11:51;15.90;99.90
3262;DHT22;1643;47.746;9.000;2022-09-17T15:14:21;16.10;99.90
3262;DHT22;1643;47.746;9.000;2022-09-17T15:16:52;16.30;99.90
3262;DHT22;1643;47.746;9.000;2022-09-17T15:19:35;16.30;99.90
3262;DHT22;1643;47.746;9.000;2022-09-17T15:22:08;15.90;99.90
3262;DHT22;1643;47.746;9.000;2022-09-17T15:27:36;15.30;99.90
3262;DHT22;1643;47.746;9.000;2022-09-17T15:32:47;14.90;99.90
3262;DHT22;1643;47.746;9.000;2022-09-17T15:37:47;14.70;99.90
3262;DHT22;1643;47.746;9.000;2022-09-17T15:40:22;14.60;99.90
3262;DHT22;1643;47.746;9.000;2022-09-17T15:42:50;14.50;99.90
3262;DHT22;1643;47.746;9.000;2022-09-17T15:48:03;14.60;99.90
3262;DHT22;1643;47.746;9.000;2022-09-17T15:50:48;14.70;99.90
3262;DHT22;1643;47.746;9.000;2022-09-17T15:53:24;14.60;99.90
3262;DHT22;1643;47.746;9.000;2022-09-17T15:56:14;14.90;99.90
3262;DHT22;1643;47.746;9.000;2022-09-17T16:08:54;14.40;99.90
3262;DHT22;1643;47.746;9.000;2022-09-17T16:11:22;14.20;99.90
3262;DHT22;1643;47.746;9.000;2022-09-17T16:13:48;14.10;99.90
3262;DHT22;1643;47.746;9.000;2022-09-17T16:16:20;14.10;99.90
3262;DHT22;1643;47.746;9.000;2022-09-17T16:18:46;14.20;99.90
3262;DHT22;1643;47.746;9.000;2022-09-17T16:21:14;14.60;99.90
3262;DHT22;1643;47.746;9.000;2022-09-17T16:23:40;15.00;99.90
3262;DHT22;1643;47.746;9.000;2022-09-17T16:26:11;15.30;99.90
3262;DHT22;1643;47.746;9.000;2022-09-17T16:28:38;15.30;99.90
3262;DHT22;1643;47.746;9.000;2022-09-17T16:31:05;15.50;99.90
3262;DHT22;1643;47.746;9.000;2022-09-17T16:33:30;15.50;99.90
3262;DHT22;1643;47.746;9.000;2022-09-17T16:35:57;15.50;99.90
3262;DHT22;1643;47.746;9.000;2022-09-17T16:38:23;15.20;99.90
3262;DHT22;1643;47.746;9.000;2022-09-17T16:40:49;15.10;99.90
3262;DHT22;1643;47.746;9.000;2022-09-17T16:43:16;14.90;99.90
3262;DHT22;1643;47.746;9.000;2022-09-17T16:45:43;14.60;99.90
3262;DHT22;1643;47.746;9.000;2022-09-17T16:48:09;14.30;99.90
3262;DHT22;1643;47.746;9.000;2022-09-17T16:50:37;14.00;99.90
3262;DHT22;1643;47.746;9.000;2022-09-17T16:53:04;14.00;99.90
3262;DHT22;1643;47.746;9.000;2022-09-17T16:55:30;13.80;99.90
3262;DHT22;1643;47.746;9.000;2022-09-17T16:57:56;13.60;99.90
3262;DHT22;1643;47.746;9.000;2022-09-17T17:00:22;13.60;99.90
3262;DHT22;1643;47.746;9.000;2022-09-17T17:02:56;13.40;99.90
3262;DHT22;1643;47.746;9.000;2022-09-17T17:05:24;13.30;99.90
3262;DHT22;1643;47.746;9.000;2022-09-17T17:07:50;13.50;99.90
3262;DHT22;1643;47.746;9.000;2022-09-17T17:10:16;13.20;99.90
3262;DHT22;1643;47.746;9.000;2022-09-17T17:12:41;13.10;99.90
3262;DHT22;1643;47.746;9.000;2022-09-17T17:15:08;13.10;99.90
3262;DHT22;1643;47.746;9.000;2022-09-17T17:17:33;13.00;99.90
3262;DHT22;1643;47.746;9.000;2022-09-17T17:20:00;12.90;99.90
3262;DHT22;1643;47.746;9.000;2022-09-17T17:22:27;12.90;99.90
3262;DHT22;1643;47.746;9.000;2022-09-17T17:24:53;12.90;99.90
3262;DHT22;1643;47.746;9.000;2022-09-17T17:27:19;12.90;99.90
3262;DHT22;1643;47.746;9.000;2022-09-17T17:29:45;12.80;99.90
3262;DHT22;1643;47.746;9.000;2022-09-17T17:32:10;12.80;99.90
3262;DHT22;1643;47.746;9.000;2022-09-17T17:34:36;12.90;99.90
3262;DHT22;1643;47.746;9.000;2022-09-17T17:37:01;12.90;99.90
3262;DHT22;1643;47.746;9.000;2022-09-17T17:39:27;12.90;99.90
3262;DHT22;1643;47.746;9.000;2022-09-17T17:41:53;12.80;99.90
3262;DHT22;1643;47.746;9.000;2022-09-17T17:44:20;12.70;99.90
3262;DHT22;1643;47.746;9.000;2022-09-17T17:46:45;12.80;99.90
3262;DHT22;1643;47.746;9.000;2022-09-17T17:49:11;12.80;99.90
3262;DHT22;1643;47.746;9.000;2022-09-17T17:51:38;12.80;99.90
3262;DHT22;1643;47.746;9.000;2022-09-17T17:54:04;12.80;99.90
3262;DHT22;1643;47.746;9.000;2022-09-17T17:56:29;12.80;99.90
3262;DHT22;1643;47.746;9.000;2022-09-17T17:58:57;12.70;99.90
3262;DHT22;1643;47.746;9.000;2022-09-17T18:01:30;12.60;99.90
3262;DHT22;1643;47.746;9.000;2022-09-17T18:04:00;12.60;99.90
3262;DHT22;1643;47.746;9.000;2022-09-17T18:06:27;12.60;99.90
3262;DHT22;1643;47.746;9.000;2022-09-17T18:08:53;12.60;99.90
3262;DHT22;1643;47.746;9.000;2022-09-17T18:11:19;12.70;99.90
3262;DHT22;1643;47.746;9.000;2022-09-17T18:13:45;12.60;99.90
3262;DHT22;1643;47.746;9.000;2022-09-17T18:16:12;12.60;99.90
3262;DHT22;1643;47.746;9.000;2022-09-17T18:18:40;12.60;99.90
3262;DHT22;1643;47.746;9.000;2022-09-17T18:21:08;12.70;99.90
3262;DHT22;1643;47.746;9.000;2022-09-17T18:23:36;12.60;99.90
3262;DHT22;1643;47.746;9.000;2022-09-17T18:26:04;12.70;99.90
3262;DHT22;1643;47.746;9.000;2022-09-17T18:28:30;12.70;99.90
3262;DHT22;1643;47.746;9.000;2022-09-17T18:31:02;12.60;99.90
3262;DHT22;1643;47.746;9.000;2022-09-17T18:33:28;12.60;99.90
3262;DHT22;1643;47.746;9.000;2022-09-17T18:36:00;12.50;99.90
3262;DHT22;1643;47.746;9.000;2022-09-17T18:38:26;12.50;99.90
3262;DHT22;1643;47.746;9.000;2022-09-17T18:40:52;12.60;99.90
3262;DHT22;1643;47.746;9.000;2022-09-17T18:43:17;12.50;99.90
3262;DHT22;1643;47.746;9.000;2022-09-17T18:45:54;12.60;99.90
3262;DHT22;1643;47.746;9.000;2022-09-17T18:48:23;12.60;99.90
3262;DHT22;1643;47.746;9.000;2022-09-17T18:51:05;12.50;99.90
3262;DHT22;1643;47.746;9.000;2022-09-17T18:53:34;12.50;99.90
3262;DHT22;1643;47.746;9.000;2022-09-17T18:56:28;12.40;99.90
3262;DHT22;1643;47.746;9.000;2022-09-17T18:58:55;12.50;99.90
3262;DHT22;1643;47.746;9.000;2022-09-17T19:01:24;12.50;99.90
3262;DHT22;1643;47.746;9.000;2022-09-17T19:03:50;12.50;99.90
3262;DHT22;1643;47.746;9.000;2022-09-17T19:06:16;12.50;99.90
3262;DHT22;1643;47.746;9.000;2022-09-17T19:08:43;12.40;99.90
3262;DHT22;1643;47.746;9.000;2022-09-17T19:11:10;12.30;99.90
3262;DHT22;1643;47.746;9.000;2022-09-17T19:13:41;12.30;99.90
3262;DHT22;1643;47.746;9.000;2022-09-17T19:16:08;12.30;99.90
3262;DHT22;1643;47.746;9.000;2022-09-17T19:18:34;12.30;99.90
3262;DHT22;1643;47.746;9.000;2022-09-17T19:21:06;12.30;99.90
3262;DHT22;1643;47.746;9.000;2022-09-17T19:23:32;12.40;99.90
3262;DHT22;1643;47.746;9.000;2022-09-17T19:26:05;12.40;99.90
3262;DHT22;1643;47.746;9.000;2022-09-17T19:28:32;12.40;99.90
3262;DHT22;1643;47.746;9.000;2022-09-17T19:30:58;12.40;99.90
3262;DHT22;1643;47.746;9.000;2022-09-17T19:33:24;12.30;99.90
3262;DHT22;1643;47.746;9.000;2022-09-17T19:35:50;12.30;99.90
3262;DHT22;1643;47.746;9.000;2022-09-17T19:38:16;12.30;99.90
3262;DHT22;1643;47.746;9.000;2022-09-17T19:40:42;12.10;99.90
3262;DHT22;1643;47.746;9.000;2022-09-17T19:43:09;12.20;99.90
3262;DHT22;1643;47.746;9.000;2022-09-17T19:45:34;12.10;99.90
3262;DHT22;1643;47.746;9.000;2022-09-17T19:48:00;12.20;99.90
3262;DHT22;1643;47.746;9.000;2022-09-17T19:50:27;12.00;99.90
3262;DHT22;1643;47.746;9.000;2022-09-17T19:52:53;12.00;99.90
3262;DHT22;1643;47.746;9.000;2022-09-17T19:55:18;11.90;99.90
3262;DHT22;1643;47.746;9.000;2022-09-17T19:57:46;12.10;99.90
3262;DHT22;1643;47.746;9.000;2022-09-17T20:00:12;12.10;99.90
3262;DHT22;1643;47.746;9.000;2022-09-17T20:02:38;12.10;99.90